Time;durP1;ratioP1;P1;durP2;ratioP2;P2;SDS_P1;SDS_P2;PMS_P1;PMS_P2;Temp;Humidity;BMP_temperature;BMP_pressure;BME280_temperature;BME280_humidity;BME280_pressure;Samples;Min_cycle;Max_cycle;Signal;HPM_P1;HPM_P2
2023/07/05 00:00:32;;;;;;;3.95;2.63;;;;;;;17.30;100.00;93881.72;5052638;28;20021;-78
2023/07/05 00:02:58;;;;;;;3.72;2.83;;;;;;;17.25;100.00;93878.94;5053630;28;20029;-80
2023/07/05 00:05:23;;;;;;;3.28;3.08;;;;;;;17.22;100.00;93850.94;5050499;28;20036;-78
2023/07/05 00:07:49;;;;;;;5.28;2.90;;;;;;;17.24;100.00;93832.13;5055751;28;20550;-78
2023/07/05 00:10:15;;;;;;;4.80;3.00;;;;;;;17.04;100.00;93825.25;5054116;28;20021;-78
2023/07/05 00:12:40;;;;;;;2.63;2.30;;;;;;;17.06;100.00;93809.88;5041123;28;20047;-78
2023/07/05 00:15:07;;;;;;;3.08;2.78;;;;;;;17.04;100.00;93790.69;5056187;28;20025;-79
2023/07/05 00:17:34;;;;;;;4.93;3.28;;;;;;;17.06;100.00;93783.31;5055762;28;20013;-78
2023/07/05 00:20:00;;;;;;;3.80;3.00;;;;;;;17.03;100.00;93775.78;5047679;28;20028;-78
2023/07/05 00:22:28;;;;;;;3.58;2.80;;;;;;;17.01;100.00;93773.34;5029269;28;20029;-78
2023/07/05 00:24:55;;;;;;;4.47;3.05;;;;;;;16.88;100.00;93777.00;5050406;28;20060;-78
2023/07/05 00:27:21;;;;;;;4.03;3.08;;;;;;;16.90;100.00;93782.91;5048169;28;20128;-78
2023/07/05 00:29:46;;;;;;;3.92;3.20;;;;;;;16.98;100.00;93773.81;5053955;28;20040;-78
2023/07/05 00:32:12;;;;;;;3.38;3.08;;;;;;;17.04;100.00;93774.75;5052650;28;20437;-78
2023/07/05 00:34:37;;;;;;;4.55;3.25;;;;;;;17.04;100.00;93780.06;5055266;28;20029;-78
2023/07/05 00:37:03;;;;;;;3.30;2.75;;;;;;;17.07;100.00;93773.50;5053362;28;20082;-78
2023/07/05 00:39:28;;;;;;;5.82;3.15;;;;;;;17.07;100.00;93766.31;5048196;28;20028;-78
2023/07/05 00:41:55;;;;;;;4.25;3.15;;;;;;;17.05;100.00;93752.44;5049439;28;20025;-78
2023/07/05 00:44:20;;;;;;;7.43;3.28;;;;;;;17.03;100.00;93743.91;5052926;28;20025;-78
2023/07/05 00:46:52;;;;;;;4.22;3.20;;;;;;;16.98;100.00;93741.09;5051549;28;20047;-78
2023/07/05 00:49:21;;;;;;;3.30;3.00;;;;;;;16.95;100.00;93749.53;5051053;28;20028;-77
2023/07/05 00:52:08;;;;;;;6.22;3.00;;;;;;;16.95;100.00;93757.50;5053369;28;20504;-79
2023/07/05 00:54:51;;;;;;;4.78;3.25;;;;;;;16.94;100.00;93753.22;5054420;28;20102;-79
2023/07/05 00:57:28;;;;;;;7.32;3.20;;;;;;;16.94;100.00;93766.50;5047369;28;20021;-78
2023/07/05 01:00:08;;;;;;;5.30;3.35;;;;;;;16.93;100.00;93765.69;5048515;28;20394;-78
2023/07/05 01:02:39;;;;;;;5.85;3.33;;;;;;;16.95;100.00;93758.28;5047608;28;20029;-78
2023/07/05 01:05:05;;;;;;;3.22;2.83;;;;;;;17.00;100.00;93747.81;5050010;28;20039;-78
2023/07/05 01:07:31;;;;;;;3.70;2.97;;;;;;;17.01;100.00;93751.28;5052932;28;20108;-78
2023/07/05 01:09:57;;;;;;;4.80;3.13;;;;;;;17.00;100.00;93750.47;5051319;28;20060;-78
2023/07/05 01:12:46;;;;;;;6.78;3.47;;;;;;;16.98;100.00;93747.22;5047065;28;20024;-78
2023/07/05 01:15:27;;;;;;;3.88;3.13;;;;;;;16.98;100.00;93744.56;5050589;28;20040;-78
2023/07/05 01:17:52;;;;;;;3.20;3.00;;;;;;;17.01;100.00;93748.63;5054257;28;20082;-79
2023/07/05 01:20:27;;;;;;;3.58;3.03;;;;;;;17.02;100.00;93736.97;5055303;28;20434;-79
2023/07/05 01:23:11;;;;;;;3.85;2.90;;;;;;;17.07;100.00;93745.03;5050960;28;20018;-78
2023/07/05 01:26:14;;;;;;;4.10;3.00;;;;;;;17.09;100.00;93737.66;5053490;28;20028;-78
2023/07/05 01:28:46;;;;;;;4.43;3.10;;;;;;;17.11;100.00;93730.25;5046165;28;20116;-78
2023/07/05 01:31:32;;;;;;;3.03;2.83;;;;;;;17.12;100.00;93705.28;5052944;28;20040;-78
2023/07/05 01:34:03;;;;;;;3.40;3.10;;;;;;;17.15;100.00;93682.75;5048313;28;20040;-78
2023/07/05 01:36:30;;;;;;;6.28;3.22;;;;;;;17.20;100.00;93682.06;5047649;28;20036;-78
2023/07/05 01:38:55;;;;;;;7.28;3.13;;;;;;;17.18;100.00;93688.44;5048103;28;20460;-78
2023/07/05 01:41:22;;;;;;;4.03;3.05;;;;;;;17.22;100.00;93687.97;5035214;28;20064;-78
2023/07/05 01:43:49;;;;;;;3.40;2.72;;;;;;;17.15;100.00;93686.22;5053880;28;20665;-78
2023/07/05 01:46:24;;;;;;;4.50;3.13;;;;;;;17.04;100.00;93689.69;5044065;28;20031;-80
2023/07/05 01:48:53;;;;;;;3.72;3.22;;;;;;;16.99;100.00;93703.66;5041842;28;20031;-78
2023/07/05 01:51:19;;;;;;;3.40;2.72;;;;;;;16.99;100.00;93692.25;5047958;28;20573;-78
2023/07/05 01:54:24;;;;;;;3.08;2.88;;;;;;;16.97;100.00;93673.81;5052331;28;20099;-78
2023/07/05 01:57:17;;;;;;;8.25;3.22;;;;;;;16.96;100.00;93650.94;5042723;28;20485;-78
2023/07/05 02:00:07;;;;;;;7.30;3.28;;;;;;;16.99;100.00;93647.84;5052245;28;20120;-77
2023/07/05 02:02:46;;;;;;;4.00;3.03;;;;;;;17.03;100.00;93661.50;5051382;28;20093;-78
2023/07/05 02:05:13;;;;;;;7.90;3.15;;;;;;;17.00;100.00;93675.25;5058823;28;20029;-80
2023/07/05 02:07:38;;;;;;;3.50;3.20;;;;;;;16.95;100.00;93673.25;5057982;28;20028;-80
2023/07/05 02:10:04;;;;;;;3.17;2.97;;;;;;;16.93;100.00;93670.00;5058338;28;20028;-77
2023/07/05 02:12:29;;;;;;;4.53;3.03;;;;;;;16.83;100.00;93661.81;5058352;28;20049;-77
2023/07/05 02:14:55;;;;;;;3.92;3.30;;;;;;;16.76;100.00;93656.63;5049253;28;20382;-77
2023/07/05 02:17:22;;;;;;;4.57;3.95;;;;;;;16.73;100.00;93660.53;5055333;28;20033;-78
2023/07/05 02:19:47;;;;;;;5.10;3.38;;;;;;;16.77;100.00;93647.59;5059079;28;20120;-79
2023/07/05 02:22:13;;;;;;;7.97;3.20;;;;;;;16.76;100.00;93640.66;5059178;28;20025;-78
2023/07/05 02:24:38;;;;;;;4.97;2.97;;;;;;;16.78;100.00;93630.63;5059455;28;20466;-78
2023/07/05 02:27:04;;;;;;;5.43;3.58;;;;;;;16.75;100.00;93631.09;5049856;28;20040;-80
2023/07/05 02:29:30;;;;;;;7.47;3.83;;;;;;;16.73;100.00;93623.34;5055629;28;20018;-78
2023/07/05 02:31:57;;;;;;;5.45;3.13;;;;;;;16.73;100.00;93625.19;5058650;28;20473;-78
2023/07/05 02:34:22;;;;;;;4.63;3.47;;;;;;;16.72;100.00;93623.59;5044703;28;20076;-80
2023/07/05 02:36:48;;;;;;;3.60;3.05;;;;;;;16.73;100.00;93623.34;5047395;28;20017;-78
2023/07/05 02:39:13;;;;;;;3.88;3.33;;;;;;;16.75;100.00;93626.56;5054582;28;20034;-78
2023/07/05 02:41:39;;;;;;;4.53;3.00;;;;;;;16.71;100.00;93629.94;5044174;28;20025;-78
2023/07/05 02:44:04;;;;;;;3.45;3.15;;;;;;;16.69;100.00;93627.50;5044480;28;20028;-78
2023/07/05 02:46:31;;;;;;;4.65;3.25;;;;;;;16.71;100.00;93614.00;5056453;28;20025;-77
2023/07/05 02:48:57;;;;;;;3.40;3.10;;;;;;;16.72;100.00;93604.97;5056346;28;20033;-78
2023/07/05 02:51:27;;;;;;;3.45;3.05;;;;;;;16.78;100.00;93582.78;5056519;28;20108;-78
2023/07/05 02:53:53;;;;;;;3.72;3.40;;;;;;;16.77;100.00;93554.59;5056653;28;20060;-80
2023/07/05 02:56:18;;;;;;;3.63;3.33;;;;;;;16.76;100.00;93534.41;5054625;28;20692;-80
2023/07/05 02:58:44;;;;;;;3.78;3.20;;;;;;;16.75;100.00;93519.50;5057310;28;20025;-79
2023/07/05 03:01:09;;;;;;;3.63;3.00;;;;;;;16.79;100.00;93519.81;5055330;28;20025;-79
2023/07/05 03:03:35;;;;;;;3.58;2.88;;;;;;;16.83;100.00;93516.47;5054402;28;20035;-80
2023/07/05 03:06:01;;;;;;;4.45;3.35;;;;;;;16.82;100.00;93517.50;5065070;28;20529;-79
2023/07/05 03:08:30;;;;;;;3.38;2.97;;;;;;;16.77;100.00;93517.41;5037487;28;20079;-79
2023/07/05 03:10:57;;;;;;;3.50;3.20;;;;;;;16.74;100.00;93512.56;5055792;28;20051;-79
2023/07/05 03:13:28;;;;;;;4.32;3.50;;;;;;;16.65;100.00;93503.31;5051475;28;20033;-77
2023/07/05 03:15:53;;;;;;;4.45;3.83;;;;;;;16.61;100.00;93490.50;5046504;28;20526;-79
2023/07/05 03:18:19;;;;;;;3.70;3.22;;;;;;;16.60;100.00;93486.25;5056267;28;20025;-79
2023/07/05 03:20:46;;;;;;;4.07;3.35;;;;;;;16.59;100.00;93489.16;5055971;28;20024;-80
2023/07/05 03:23:12;;;;;;;4.82;3.40;;;;;;;16.59;100.00;93481.97;5056110;28;20063;-79
2023/07/05 03:25:38;;;;;;;3.65;3.35;;;;;;;16.56;100.00;93471.81;5055587;28;20029;-79
2023/07/05 03:28:04;;;;;;;3.88;3.58;;;;;;;16.56;100.00;93457.72;5058710;28;20056;-79
2023/07/05 03:30:29;;;;;;;3.80;3.50;;;;;;;16.56;100.00;93442.59;5053775;28;20494;-79
2023/07/05 03:32:54;;;;;;;3.90;3.03;;;;;;;16.56;100.00;93431.97;5053283;28;20033;-79
2023/07/05 03:35:20;;;;;;;3.60;3.33;;;;;;;16.57;100.00;93422.97;5053988;28;20090;-79
2023/07/05 03:37:45;;;;;;;5.28;3.33;;;;;;;16.58;100.00;93408.66;5054549;28;20028;-79
2023/07/05 03:40:11;;;;;;;3.60;3.40;;;;;;;16.60;100.00;93408.44;5054163;28;20028;-79
2023/07/05 03:42:37;;;;;;;3.15;2.95;;;;;;;16.56;100.00;93405.44;5053739;28;20033;-79
2023/07/05 03:45:03;;;;;;;4.25;3.67;;;;;;;16.54;100.00;93422.63;5053964;28;20025;-79
2023/07/05 03:47:29;;;;;;;4.38;3.30;;;;;;;16.52;100.00;93403.47;5052328;28;20039;-79
2023/07/05 03:49:54;;;;;;;3.45;3.15;;;;;;;16.50;100.00;93401.06;5055330;28;20054;-79
2023/07/05 03:52:20;;;;;;;5.53;3.63;;;;;;;16.50;100.00;93392.28;5053919;28;20033;-83
2023/07/05 03:54:45;;;;;;;6.20;3.30;;;;;;;16.47;100.00;93374.97;5053986;28;20194;-79
2023/07/05 03:57:10;;;;;;;5.80;3.78;;;;;;;16.50;100.00;93377.16;5048967;28;20028;-79
2023/07/05 03:59:36;;;;;;;4.13;3.20;;;;;;;16.51;100.00;93370.81;5054370;28;20029;-80
2023/07/05 04:02:01;;;;;;;4.90;3.60;;;;;;;16.50;100.00;93366.53;5055184;28;20021;-78
2023/07/05 04:04:27;;;;;;;4.55;3.50;;;;;;;16.53;100.00;93367.91;5056346;28;20032;-78
2023/07/05 04:06:52;;;;;;;5.93;3.53;;;;;;;16.58;100.00;93368.00;5055011;28;20162;-81
2023/07/05 04:09:18;;;;;;;4.85;3.50;;;;;;;16.57;100.00;93375.16;5055054;28;20047;-80
2023/07/05 04:11:44;;;;;;;7.57;4.00;;;;;;;16.58;100.00;93368.00;5053047;28;20504;-80
2023/07/05 04:14:09;;;;;;;4.72;4.00;;;;;;;16.59;100.00;93357.13;5042892;28;20072;-79
2023/07/05 04:16:35;;;;;;;3.70;3.40;;;;;;;16.61;100.00;93346.28;5059311;28;20059;-79
2023/07/05 04:19:00;;;;;;;6.00;3.40;;;;;;;16.61;100.00;93339.13;5057689;28;20036;-79
2023/07/05 04:21:27;;;;;;;6.10;3.78;;;;;;;16.58;100.00;93336.94;5056654;28;20401;-80
2023/07/05 04:23:52;;;;;;;4.07;3.78;;;;;;;16.58;100.00;93328.97;5057570;28;20029;-80
2023/07/05 04:26:21;;;;;;;7.18;4.15;;;;;;;16.63;100.00;93324.78;5053884;28;20468;-79
2023/07/05 04:28:47;;;;;;;7.25;3.85;;;;;;;16.64;100.00;93323.75;5055978;28;20135;-79
2023/07/05 04:31:17;;;;;;;4.25;3.88;;;;;;;16.65;100.00;93328.00;5054857;28;20435;-80
2023/07/05 04:33:43;;;;;;;4.43;3.80;;;;;;;16.59;100.00;93321.81;5063345;28;20013;-79
2023/07/05 04:36:08;;;;;;;5.93;3.75;;;;;;;16.57;100.00;93313.25;5053445;28;20040;-79
2023/07/05 04:38:34;;;;;;;4.03;3.67;;;;;;;16.55;100.00;93302.06;5055238;28;20013;-79
2023/07/05 04:41:00;;;;;;;4.43;4.03;;;;;;;16.56;100.00;93293.88;5054968;28;20036;-80
2023/07/05 04:43:26;;;;;;;6.82;3.97;;;;;;;16.61;100.00;93293.97;5053851;28;20025;-79
2023/07/05 04:45:54;;;;;;;4.00;3.70;;;;;;;16.59;100.00;93304.00;5049615;28;20648;-79
2023/07/05 04:48:20;;;;;;;4.95;4.38;;;;;;;16.63;100.00;93298.22;5054877;28;20053;-79
2023/07/05 04:50:52;;;;;;;7.32;4.10;;;;;;;16.69;100.00;93278.66;5040854;28;20081;-79
2023/07/05 04:53:19;;;;;;;6.35;4.05;;;;;;;16.74;100.00;93262.84;5058450;28;20047;-79
2023/07/05 04:55:49;;;;;;;4.22;3.83;;;;;;;16.74;100.00;93263.63;5052522;28;20132;-79
2023/07/05 04:58:15;;;;;;;9.60;4.00;;;;;;;16.80;100.00;93269.84;5054496;28;20021;-80
2023/07/05 05:00:49;;;;;;;5.28;4.00;;;;;;;16.85;100.00;93272.56;5053970;28;20566;-78
2023/07/05 05:03:23;;;;;;;9.18;4.38;;;;;;;16.89;100.00;93265.72;5054051;28;20028;-78
2023/07/05 05:05:51;;;;;;;7.53;3.83;;;;;;;17.00;100.00;93271.25;5063964;28;20025;-79
2023/07/05 05:08:19;;;;;;;5.43;3.60;;;;;;;17.09;100.00;93264.47;5054408;28;20029;-79
2023/07/05 05:10:45;;;;;;;5.47;3.65;;;;;;;17.18;100.00;93273.69;5054462;28;20032;-79
2023/07/05 05:13:10;;;;;;;8.68;4.32;;;;;;;17.22;100.00;93270.53;5053722;28;20032;-79
2023/07/05 05:15:37;;;;;;;6.43;3.88;;;;;;;17.26;100.00;93277.78;5048324;28;20083;-79
2023/07/05 05:18:04;;;;;;;8.75;4.07;;;;;;;17.31;100.00;93277.03;5049549;28;20060;-79
2023/07/05 05:20:30;;;;;;;4.07;3.75;;;;;;;17.36;100.00;93279.81;5053993;28;20115;-79
2023/07/05 05:22:57;;;;;;;4.85;4.28;;;;;;;17.43;100.00;93284.94;5054625;28;20067;-78
2023/07/05 05:25:23;;;;;;;5.88;4.10;;;;;;;17.46;100.00;93290.56;5053851;28;20060;-79
2023/07/05 05:27:48;;;;;;;8.70;3.97;;;;;;;17.48;100.00;93298.31;5057823;28;20029;-79
2023/07/05 05:30:14;;;;;;;4.97;3.75;;;;;;;17.47;100.00;93318.78;5052747;28;20028;-79
2023/07/05 05:32:39;;;;;;;4.28;3.88;;;;;;;17.52;100.00;93342.00;5052105;28;20035;-79
2023/07/05 05:35:05;;;;;;;4.95;4.28;;;;;;;17.53;100.00;93372.88;5054431;28;20031;-79
2023/07/05 05:37:31;;;;;;;5.20;4.03;;;;;;;17.54;100.00;93408.25;5054977;28;20028;-79
2023/07/05 05:39:56;;;;;;;8.52;4.18;;;;;;;17.51;100.00;93420.19;5054303;28;20029;-78
2023/07/05 05:42:21;;;;;;;4.95;4.05;;;;;;;17.46;100.00;93428.88;5054312;28;20033;-79
2023/07/05 05:44:47;;;;;;;5.78;4.30;;;;;;;17.46;100.00;93428.06;5051426;28;20024;-80
2023/07/05 05:47:12;;;;;;;5.47;4.10;;;;;;;17.49;100.00;93424.13;5053583;28;20029;-80
2023/07/05 05:49:38;;;;;;;6.38;3.78;;;;;;;17.58;100.00;93420.81;5054633;28;20090;-79
2023/07/05 05:52:03;;;;;;;6.47;4.20;;;;;;;17.68;100.00;93417.53;5053277;28;20057;-79
2023/07/05 05:54:29;;;;;;;5.20;4.57;;;;;;;17.76;100.00;93421.66;5053744;28;20544;-79
2023/07/05 05:56:54;;;;;;;4.78;4.05;;;;;;;17.88;100.00;93402.94;5044948;28;20108;-79
2023/07/05 05:59:20;;;;;;;5.07;4.68;;;;;;;17.93;100.00;93384.38;5048352;28;20540;-80
2023/07/05 06:01:45;;;;;;;5.80;4.47;;;;;;;17.97;100.00;93385.47;5053769;28;20421;-78
2023/07/05 06:04:11;;;;;;;6.75;4.25;;;;;;;18.04;100.00;93410.13;5053556;28;20036;-79
2023/07/05 06:06:37;;;;;;;6.18;4.90;;;;;;;18.09;100.00;93429.88;5054298;28;20029;-80
2023/07/05 06:09:03;;;;;;;7.38;4.22;;;;;;;18.15;100.00;93419.06;5050336;28;20021;-79
2023/07/05 06:11:28;;;;;;;4.32;3.80;;;;;;;18.34;100.00;93416.09;5054053;28;20458;-79
2023/07/05 06:13:54;;;;;;;5.50;3.75;;;;;;;18.41;100.00;93434.56;5053527;28;20017;-80
2023/07/05 06:16:19;;;;;;;13.35;5.43;;;;;;;18.45;100.00;93451.66;5045296;28;20036;-79
2023/07/05 06:18:44;;;;;;;6.15;4.63;;;;;;;18.55;100.00;93483.78;5052702;28;20013;-79
2023/07/05 06:21:11;;;;;;;9.60;4.38;;;;;;;18.71;100.00;93490.13;5052766;28;20033;-79
2023/07/05 06:23:37;;;;;;;7.13;4.05;;;;;;;18.87;100.00;93501.78;5048563;28;20021;-79
2023/07/05 06:26:03;;;;;;;5.10;4.47;;;;;;;19.13;100.00;93501.31;5052340;28;20032;-79
2023/07/05 06:28:28;;;;;;;4.85;4.00;;;;;;;19.42;100.00;93541.94;5050061;28;20111;-77
2023/07/05 06:30:54;;;;;;;5.80;3.88;;;;;;;19.58;100.00;93587.47;5053057;28;20552;-76
2023/07/05 06:33:19;;;;;;;6.97;4.03;;;;;;;19.64;100.00;93629.16;5049162;28;20501;-76
2023/07/05 06:35:49;;;;;;;4.57;4.05;;;;;;;19.70;100.00;93662.06;5050300;28;20056;-77
2023/07/05 06:38:15;;;;;;;4.53;3.92;;;;;;;19.66;100.00;93716.97;5051521;28;20445;-78
2023/07/05 06:40:40;;;;;;;8.30;3.65;;;;;;;19.66;100.00;93720.47;5047108;28;20067;-77
2023/07/05 06:43:08;;;;;;;4.10;3.70;;;;;;;19.58;100.00;93739.59;5045958;28;20032;-78
2023/07/05 06:45:34;;;;;;;7.38;3.83;;;;;;;19.52;100.00;93743.22;5050206;28;20227;-78
2023/07/05 06:48:00;;;;;;;4.28;3.55;;;;;;;19.64;100.00;93740.44;5054362;28;20131;-77
2023/07/05 06:50:25;;;;;;;9.25;4.43;;;;;;;19.64;100.00;93741.25;5054083;28;20030;-78
2023/07/05 06:52:50;;;;;;;4.30;3.90;;;;;;;19.79;100.00;93742.53;5057987;28;20109;-75
2023/07/05 06:55:16;;;;;;;8.20;4.28;;;;;;;19.76;100.00;93765.19;5048506;28;20815;-78
2023/07/05 06:57:41;;;;;;;4.38;3.97;;;;;;;19.73;100.00;93785.16;5052288;28;20124;-76
2023/07/05 07:00:09;;;;;;;7.18;3.83;;;;;;;19.72;100.00;93802.22;5056261;28;20028;-80
2023/07/05 07:02:35;;;;;;;4.10;3.80;;;;;;;19.72;100.00;93818.25;5043815;28;20506;-80
2023/07/05 07:05:00;;;;;;;4.15;3.78;;;;;;;20.28;100.00;93777.34;5055226;28;20056;-79
2023/07/05 07:07:26;;;;;;;4.57;3.78;;;;;;;20.79;100.00;93786.94;5048348;28;20052;-79
2023/07/05 07:09:52;;;;;;;6.43;4.10;;;;;;;21.26;100.00;93833.69;5051843;28;20613;-74
2023/07/05 07:12:17;;;;;;;4.75;4.22;;;;;;;21.23;100.00;93849.44;5056563;28;20025;-74
2023/07/05 07:14:43;;;;;;;3.83;3.55;;;;;;;20.84;100.00;93842.38;5042668;28;20041;-75
2023/07/05 07:17:09;;;;;;;3.72;3.20;;;;;;;20.59;100.00;93881.13;5053186;28;20025;-75
2023/07/05 07:19:34;;;;;;;4.25;3.60;;;;;;;20.50;100.00;93870.06;5055015;28;20051;-75
2023/07/05 07:21:59;;;;;;;6.10;4.20;;;;;;;20.41;100.00;93823.44;5055327;28;20041;-75
2023/07/05 07:24:25;;;;;;;7.53;4.20;;;;;;;20.41;100.00;93775.31;5048242;28;20028;-75
2023/07/05 07:26:51;;;;;;;7.13;3.70;;;;;;;20.47;100.00;93756.44;5056705;28;20054;-75
2023/07/05 07:29:16;;;;;;;4.95;3.72;;;;;;;20.70;100.00;93769.75;5054523;28;20029;-75
2023/07/05 07:31:42;;;;;;;5.10;4.07;;;;;;;20.86;100.00;93792.13;5054790;28;20027;-74
2023/07/05 07:34:08;;;;;;;6.15;4.00;;;;;;;20.77;100.00;93810.47;5056433;28;20025;-75
2023/07/05 07:36:35;;;;;;;5.45;4.18;;;;;;;20.54;100.00;93812.38;5055879;28;20639;-75
2023/07/05 07:39:00;;;;;;;5.43;4.22;;;;;;;21.04;100.00;93797.13;5055963;28;20036;-75
2023/07/05 07:41:31;;;;;;;5.55;3.65;;;;;;;21.72;100.00;93819.06;5055886;28;20020;-75
2023/07/05 07:44:00;;;;;;;6.45;3.90;;;;;;;21.66;100.00;93887.84;5054460;28;20115;-75
2023/07/05 07:46:28;;;;;;;9.73;4.32;;;;;;;21.86;100.00;93871.09;5055379;28;20509;-74
2023/07/05 07:48:56;;;;;;;4.00;3.70;;;;;;;22.13;100.00;93891.66;5055753;28;20047;-75
2023/07/05 07:51:23;;;;;;;7.72;4.30;;;;;;;21.92;100.00;93952.31;5043016;28;20102;-75
2023/07/05 07:53:52;;;;;;;4.50;4.10;;;;;;;22.51;100.00;93941.75;5055348;28;20106;-75
2023/07/05 07:56:20;;;;;;;3.78;3.47;;;;;;;22.96;100.00;93929.59;5054753;28;20017;-75
2023/07/05 07:58:48;;;;;;;3.83;3.53;;;;;;;23.07;100.00;93991.38;5055602;28;20021;-75
2023/07/05 08:01:30;;;;;;;6.43;4.03;;;;;;;23.04;100.00;93965.88;5055351;28;20021;-75
2023/07/05 08:03:58;;;;;;;4.20;3.50;;;;;;;23.21;100.00;93997.06;5055726;28;20421;-75
2023/07/05 08:06:30;;;;;;;3.83;3.53;;;;;;;23.86;100.00;93997.50;5062816;28;20032;-75
2023/07/05 08:08:56;;;;;;;7.00;3.97;;;;;;;24.14;100.00;94014.22;5055029;28;20397;-74
2023/07/05 08:11:21;;;;;;;4.85;3.80;;;;;;;24.69;100.00;94027.09;5055372;28;20033;-75
2023/07/05 08:13:48;;;;;;;4.45;3.45;;;;;;;24.70;100.00;94074.44;5054579;28;20021;-75
2023/07/05 08:16:14;;;;;;;3.35;3.10;;;;;;;24.54;100.00;94027.91;5055223;28;20025;-75
2023/07/05 08:18:40;;;;;;;4.05;3.15;;;;;;;25.05;100.00;94011.97;5049988;28;20021;-75
2023/07/05 08:21:05;;;;;;;3.58;3.30;;;;;;;25.18;100.00;94063.34;5055653;28;20035;-75
2023/07/05 08:23:31;;;;;;;3.70;3.40;;;;;;;25.64;100.00;94058.88;5054681;28;20021;-75
2023/07/05 08:25:56;;;;;;;3.78;3.20;;;;;;;25.94;100.00;94084.03;5056441;28;20036;-75
2023/07/05 08:28:23;;;;;;;4.30;3.90;;;;;;;25.07;100.00;94141.72;5056342;28;20063;-76
2023/07/05 08:30:57;;;;;;;4.13;3.78;;;;;;;24.30;100.00;94135.19;5047282;28;20031;-75
2023/07/05 08:33:24;;;;;;;4.25;3.85;;;;;;;24.77;100.00;94089.53;5054720;28;20046;-75
2023/07/05 08:35:54;;;;;;;3.75;3.45;;;;;;;25.26;100.00;94123.09;5054829;28;20029;-75
2023/07/05 08:38:21;;;;;;;3.90;3.58;;;;;;;25.66;100.00;94113.31;5053222;28;20485;-75
2023/07/05 08:40:52;;;;;;;4.38;3.97;;;;;;;26.14;100.00;94128.97;5053389;28;20025;-75
2023/07/05 08:43:40;;;;;;;3.38;3.13;;;;;;;26.34;100.00;94153.41;5042626;28;20035;-75
2023/07/05 08:46:12;;;;;;;4.15;3.75;;;;;;;26.53;100.00;94169.78;5054400;28;20481;-75
2023/07/05 08:48:37;;;;;;;3.67;3.38;;;;;;;26.29;100.00;94206.31;5043712;28;20025;-75
2023/07/05 08:51:04;;;;;;;5.18;3.58;;;;;;;26.20;100.00;94170.25;5040655;28;20508;-76
2023/07/05 08:53:36;;;;;;;4.07;3.63;;;;;;;26.47;100.00;94182.47;5043580;28;20032;-76
2023/07/05 08:56:15;;;;;;;4.80;3.83;;;;;;;26.54;100.00;94201.84;5053335;28;20440;-75
2023/07/05 08:58:49;;;;;;;5.50;3.88;;;;;;;26.27;100.00;94197.69;5053486;28;20032;-76
2023/07/05 09:01:25;;;;;;;4.65;3.83;;;;;;;26.07;100.00;94176.97;5044810;28;20033;-76
2023/07/05 09:03:51;;;;;;;4.40;4.00;;;;;;;26.30;100.00;94162.06;5048515;28;20033;-76
2023/07/05 09:07:00;;;;;;;4.07;3.72;;;;;;;26.76;100.00;94202.53;5063700;28;20024;-75
2023/07/05 09:09:34;;;;;;;3.90;3.60;;;;;;;26.60;100.00;94202.63;5051827;28;20041;-76
2023/07/05 09:12:42;;;;;;;5.05;3.70;;;;;;;26.70;100.00;94210.66;5053842;28;20051;-76
2023/07/05 09:15:13;;;;;;;4.40;3.83;;;;;;;26.80;100.00;94203.59;5042582;28;20032;-76
2023/07/05 09:17:47;;;;;;;4.05;3.65;;;;;;;26.82;100.00;94210.28;5053589;28;20017;-76
2023/07/05 09:20:27;;;;;;;4.70;3.15;;;;;;;26.81;100.00;94229.50;5052126;28;20029;-76
2023/07/05 09:22:54;;;;;;;4.35;3.53;;;;;;;27.25;100.00;94219.72;5054518;28;20017;-76
2023/07/05 09:25:23;;;;;;;4.93;4.07;;;;;;;27.69;100.00;94259.31;5054006;28;20016;-76
2023/07/05 09:27:55;;;;;;;7.15;4.13;;;;;;;28.02;100.00;94232.50;5053462;28;20032;-76
2023/07/05 09:30:26;;;;;;;3.90;3.60;;;;;;;28.19;100.00;94282.66;5054392;28;20025;-76
2023/07/05 09:33:04;;;;;;;4.50;3.50;;;;;;;28.16;100.00;94219.09;5053864;28;20465;-76
2023/07/05 09:35:32;;;;;;;5.43;3.83;;;;;;;27.32;100.00;94336.38;5053770;28;20028;-76
2023/07/05 09:38:00;;;;;;;3.70;3.47;;;;;;;27.25;100.00;94242.16;5053924;28;20028;-76
2023/07/05 09:40:31;;;;;;;4.35;3.95;;;;;;;28.18;100.00;94294.53;5054137;28;20350;-76
2023/07/05 09:43:00;;;;;;;5.30;3.55;;;;;;;27.30;100.00;94341.22;5053815;28;20065;-76
2023/07/05 09:45:26;;;;;;;3.70;3.40;;;;;;;26.60;100.00;94311.38;5044194;28;20024;-76
2023/07/05 09:47:59;;;;;;;4.30;3.45;;;;;;;26.75;100.00;94247.59;5053799;28;20013;-77
2023/07/05 09:50:25;;;;;;;3.67;3.30;;;;;;;27.15;100.00;94234.94;5052738;28;20021;-76
2023/07/05 09:52:56;;;;;;;3.90;3.58;;;;;;;27.14;100.00;94308.13;5058987;28;20378;-77
2023/07/05 09:55:26;;;;;;;4.07;3.72;;;;;;;26.83;100.00;94284.00;5053434;28;20057;-77
2023/07/05 09:57:52;;;;;;;4.47;3.75;;;;;;;26.21;100.00;94219.56;5054351;28;20067;-77
2023/07/05 10:00:38;;;;;;;5.57;3.67;;;;;;;26.90;100.00;94202.75;5049045;28;20576;-77
2023/07/05 10:03:14;;;;;;;4.10;3.58;;;;;;;27.48;100.00;94245.19;5037575;28;20021;-76
2023/07/05 10:05:53;;;;;;;4.30;3.90;;;;;;;27.71;100.00;94242.84;5058715;28;20028;-77
2023/07/05 10:08:21;;;;;;;4.05;3.50;;;;;;;26.80;100.00;94269.16;5053891;28;20048;-76
2023/07/05 10:10:48;;;;;;;4.28;3.88;;;;;;;26.31;100.00;94260.78;5053044;28;20033;-77
2023/07/05 10:13:34;;;;;;;4.85;4.45;;;;;;;26.02;100.00;94150.88;5052018;28;21368;-77
2023/07/05 10:16:03;;;;;;;4.13;3.83;;;;;;;26.30;100.00;94172.03;5037472;28;20531;-77
2023/07/05 10:18:34;;;;;;;4.45;4.05;;;;;;;27.44;100.00;94212.53;5053437;28;20025;-77
2023/07/05 10:21:18;;;;;;;3.58;3.28;;;;;;;28.66;100.00;94261.22;5058012;28;20025;-77
2023/07/05 10:23:44;;;;;;;4.28;3.67;;;;;;;28.64;100.00;94319.47;5056889;28;20048;-77
2023/07/05 10:26:11;;;;;;;6.63;4.15;;;;;;;27.81;100.00;94320.31;5059007;28;20024;-77
2023/07/05 10:28:40;;;;;;;3.97;3.67;;;;;;;27.87;100.00;94267.81;5037896;28;20049;-77
2023/07/05 10:31:05;;;;;;;6.07;3.90;;;;;;;27.96;100.00;94278.81;5053380;28;20089;-77
2023/07/05 10:33:36;;;;;;;4.18;3.88;;;;;;;28.34;100.00;94276.25;5055731;28;20111;-76
2023/07/05 10:36:05;;;;;;;5.82;3.50;;;;;;;28.70;100.00;94264.16;5056623;28;20031;-78
2023/07/05 10:38:33;;;;;;;3.97;3.63;;;;;;;28.98;100.00;94240.75;5057357;28;20634;-78
2023/07/05 10:41:14;;;;;;;4.05;3.60;;;;;;;29.21;100.00;94324.94;5057154;28;20033;-76
2023/07/05 10:43:40;;;;;;;3.92;3.53;;;;;;;29.50;100.00;94317.72;5057326;28;20082;-77
2023/07/05 10:46:10;;;;;;;3.65;3.33;;;;;;;29.42;100.00;94333.56;5057304;28;20604;-78
2023/07/05 10:48:40;;;;;;;4.57;3.05;;;;;;;29.67;100.00;94410.19;5056779;28;20029;-77
2023/07/05 10:51:19;;;;;;;3.30;3.10;;;;;;;29.51;100.00;94434.00;5057147;28;20025;-79
2023/07/05 10:53:52;;;;;;;3.25;3.05;;;;;;;29.38;100.00;94462.63;5056758;28;20060;-77
2023/07/05 10:56:22;;;;;;;3.35;3.08;;;;;;;28.48;100.00;94436.03;5045291;28;20037;-77
2023/07/05 10:59:01;;;;;;;5.13;3.00;;;;;;;27.77;100.00;94428.22;5056690;28;20020;-77
2023/07/05 11:02:01;;;;;;;3.75;3.40;;;;;;;27.19;100.00;94312.69;5057077;28;20025;-77
2023/07/05 11:04:33;;;;;;;3.15;2.70;;;;;;;27.85;100.00;94329.47;5057961;28;20040;-78
2023/07/05 11:07:10;;;;;;;3.60;3.30;;;;;;;27.78;100.00;94329.00;5040999;28;20610;-77
2023/07/05 11:09:37;;;;;;;3.50;3.20;;;;;;;28.04;100.00;94343.06;5056976;28;20481;-78
2023/07/05 11:12:10;;;;;;;2.80;2.58;;;;;;;28.02;100.00;94373.13;5055878;28;20025;-78
2023/07/05 11:14:35;;;;;;;2.80;2.60;;;;;;;28.10;100.00;94317.59;5056762;28;20115;-78
2023/07/05 11:17:20;;;;;;;3.83;3.30;;;;;;;28.72;100.00;94335.06;5056440;28;20067;-78
2023/07/05 11:19:45;;;;;;;;;;;;;;;29.18;100.00;94450.16;5057255;28;20043;-78
2023/07/05 11:22:38;;;;;;;7.23;2.83;;;;;;;29.08;100.00;94467.34;5055837;28;20289;-78
2023/07/05 11:25:04;;;;;;;3.00;2.80;;;;;;;29.09;100.00;94452.69;5055107;28;20033;-78
2023/07/05 11:27:29;;;;;;;3.13;2.85;;;;;;;29.20;100.00;94433.59;5057869;28;20090;-79
2023/07/05 11:29:55;;;;;;;3.00;2.80;;;;;;;29.00;100.00;94459.84;5045522;28;20033;-78
2023/07/05 11:32:22;;;;;;;3.20;2.90;;;;;;;27.79;100.00;94434.16;5056149;28;20413;-78